createdAt,value
2023-04-14T00:00:47.779Z,3.54
2023-04-14T00:03:16.662Z,3.61
2023-04-14T00:05:44.538Z,3.64
2023-04-14T00:08:12.220Z,3.56
2023-04-14T00:10:40.750Z,3.62
2023-04-14T00:13:08.621Z,3.61
2023-04-14T00:15:37.761Z,3.61
2023-04-14T00:18:06.256Z,3.65
2023-04-14T00:20:34.059Z,3.55
2023-04-14T00:23:01.791Z,3.55
2023-04-14T00:25:29.516Z,3.53
2023-04-14T00:27:57.247Z,3.49
2023-04-14T00:30:24.930Z,3.40
2023-04-14T00:32:53.922Z,3.37
2023-04-14T00:35:21.797Z,3.24
2023-04-14T00:37:49.459Z,3.20
2023-04-14T00:40:17.085Z,3.20
2023-04-14T00:42:45.349Z,3.16
2023-04-14T00:45:13.839Z,3.14
2023-04-14T00:47:46.911Z,3.02
2023-04-14T00:50:18.221Z,2.90
2023-04-14T00:52:50.089Z,2.87
2023-04-14T00:55:20.524Z,2.88
2023-04-14T00:57:48.829Z,2.85
2023-04-14T01:00:17.189Z,2.80
2023-04-14T01:02:44.992Z,2.79
2023-04-14T01:05:12.903Z,2.79
2023-04-14T01:07:42.349Z,2.99
2023-04-14T01:10:11.339Z,3.02
2023-04-14T01:12:55.666Z,2.95
2023-04-14T01:15:31.394Z,2.84
2023-04-14T01:18:08.456Z,2.53
2023-04-14T01:20:42.268Z,2.74
2023-04-14T01:23:16.819Z,2.74
2023-04-14T01:26:10.753Z,2.74
2023-04-14T01:28:56.065Z,2.51
2023-04-14T01:31:29.128Z,2.75
2023-04-14T01:34:04.141Z,2.78
2023-04-14T01:36:39.039Z,2.72
2023-04-14T01:39:09.635Z,2.83
2023-04-14T01:41:40.362Z,2.95
2023-04-14T01:44:10.617Z,3.03
2023-04-14T01:46:42.360Z,2.97
2023-04-14T01:49:12.102Z,2.78
2023-04-14T01:51:43.215Z,2.88
2023-04-14T01:54:13.049Z,2.75
2023-04-14T01:56:42.738Z,2.68
2023-04-14T01:59:13.261Z,2.65
2023-04-14T02:01:44.614Z,2.64
2023-04-14T02:04:13.590Z,2.65
2023-04-14T02:06:41.912Z,2.62
2023-04-14T02:09:13.008Z,2.41
2023-04-14T02:11:42.283Z,2.36
2023-04-14T02:14:11.924Z,2.50
2023-04-14T02:16:41.130Z,2.52
2023-04-14T02:19:10.568Z,2.46
2023-04-14T02:21:39.497Z,2.43
2023-04-14T02:24:07.773Z,2.39
2023-04-14T02:26:38.592Z,2.36
2023-04-14T02:29:12.031Z,2.37
2023-04-14T02:31:44.472Z,2.37
2023-04-14T02:34:15.431Z,2.41
2023-04-14T02:36:47.268Z,2.48
2023-04-14T02:39:19.189Z,2.43
2023-04-14T02:41:47.863Z,2.48
2023-04-14T02:44:20.288Z,2.49
2023-04-14T02:46:54.753Z,2.38
2023-04-14T02:49:25.966Z,2.54
2023-04-14T02:51:56.648Z,2.54
2023-04-14T02:54:25.537Z,2.67
2023-04-14T02:56:54.421Z,2.64
2023-04-14T02:59:26.991Z,2.58
2023-04-14T03:02:04.563Z,2.55
2023-04-14T03:04:39.086Z,2.44
2023-04-14T03:07:14.529Z,2.38
2023-04-14T03:09:43.001Z,2.32
2023-04-14T03:12:13.316Z,2.34
2023-04-14T03:14:45.106Z,2.24
2023-04-14T03:17:15.424Z,2.30
2023-04-14T03:19:48.583Z,2.23
2023-04-14T03:22:17.787Z,2.26
2023-04-14T03:24:46.317Z,2.24
2023-04-14T03:27:21.834Z,2.19
2023-04-14T03:29:55.002Z,2.10
2023-04-14T03:32:25.879Z,2.21
2023-04-14T03:34:58.922Z,2.23
2023-04-14T03:37:28.922Z,2.21
2023-04-14T03:40:00.453Z,2.17
2023-04-14T03:42:30.929Z,2.16
2023-04-14T03:45:00.443Z,2.18
2023-04-14T03:47:31.772Z,2.10
2023-04-14T03:50:05.518Z,2.11
2023-04-14T03:52:36.389Z,2.20
2023-04-14T03:55:07.134Z,2.13
2023-04-14T03:57:38.748Z,2.22
2023-04-14T04:00:09.413Z,2.11
2023-04-14T04:02:46.230Z,2.02
2023-04-14T04:05:16.026Z,2.01
2023-04-14T04:07:45.439Z,1.95
2023-04-14T04:10:14.326Z,1.96
2023-04-14T04:12:44.052Z,2.02
2023-04-14T04:15:13.094Z,2.03
2023-04-14T04:17:44.154Z,1.98
2023-04-14T04:20:16.438Z,1.92
2023-04-14T04:22:49.712Z,1.92
2023-04-14T04:25:17.923Z,1.91
2023-04-14T04:27:53.640Z,1.83
2023-04-14T04:30:25.225Z,1.79
2023-04-14T04:32:52.924Z,1.70
2023-04-14T04:39:09.575Z,1.84
2023-04-14T04:41:41.105Z,1.88
2023-04-14T04:44:09.617Z,1.85
2023-04-14T04:46:51.029Z,1.84
2023-04-14T04:49:18.832Z,1.90
2023-04-14T04:51:46.985Z,1.89
2023-04-14T04:54:17.356Z,1.91
2023-04-14T04:56:45.280Z,1.99
2023-04-14T04:59:13.131Z,2.04
2023-04-14T05:01:42.063Z,2.06
2023-04-14T05:04:09.889Z,2.03
2023-04-14T05:06:38.414Z,2.12
2023-04-14T05:09:06.682Z,2.12
2023-04-14T05:11:36.270Z,2.01
2023-04-14T05:14:04.243Z,2.19
2023-04-14T05:16:32.032Z,2.19
2023-04-14T05:19:00.514Z,2.15
2023-04-14T05:21:28.330Z,2.19
2023-04-14T05:23:56.112Z,2.15
2023-04-14T05:28:56.119Z,2.52
2023-04-14T05:31:23.804Z,2.65
2023-04-14T05:33:51.473Z,2.70
2023-04-14T05:36:19.168Z,2.72
2023-04-14T05:38:46.959Z,2.71
2023-04-14T05:41:14.559Z,2.78
2023-04-14T05:43:42.216Z,2.88
2023-04-14T05:46:11.292Z,2.93
2023-04-14T05:48:38.978Z,3.06
2023-04-14T05:51:06.763Z,3.17
2023-04-14T05:53:34.362Z,3.28
2023-04-14T05:56:01.987Z,3.33
2023-04-14T05:58:29.637Z,3.43
2023-04-14T06:00:57.280Z,3.51
2023-04-14T06:03:26.402Z,3.61
2023-04-14T06:05:54.203Z,3.69
2023-04-14T06:08:21.833Z,3.75
2023-04-14T06:10:49.884Z,4.02
2023-04-14T06:13:17.564Z,4.17
2023-04-14T06:15:45.256Z,4.31
2023-04-14T06:18:12.847Z,4.40
2023-04-14T06:20:41.896Z,4.50
2023-04-14T06:23:09.773Z,4.63
2023-04-14T06:25:37.452Z,4.72
2023-04-14T06:28:05.407Z,4.87
2023-04-14T06:30:33.150Z,5.01
2023-04-14T06:33:04.148Z,4.96
2023-04-14T06:35:33.488Z,5.21
2023-04-14T06:38:03.198Z,5.35
2023-04-14T06:40:30.964Z,5.50
2023-04-14T06:42:58.572Z,5.64
2023-04-14T06:45:26.241Z,5.65
2023-04-14T06:47:53.888Z,5.72
2023-04-14T06:50:21.521Z,5.78
2023-04-14T06:52:49.110Z,5.92
2023-04-14T06:55:18.341Z,6.02
2023-04-14T06:57:45.953Z,5.33
2023-04-14T07:00:15.325Z,6.11
2023-04-14T07:02:43.073Z,6.21
2023-04-14T07:05:11.006Z,6.22
2023-04-14T07:07:40.088Z,6.37
2023-04-14T07:10:08.500Z,6.50
2023-04-14T07:12:37.492Z,6.59
2023-04-14T07:15:06.140Z,6.59
2023-04-14T07:17:36.688Z,6.68
2023-04-14T07:20:05.224Z,6.97
2023-04-14T07:22:33.202Z,7.12
2023-04-14T07:25:00.832Z,7.24
2023-04-14T07:27:28.739Z,7.29
2023-04-14T07:29:58.375Z,7.42
2023-04-14T07:32:25.963Z,7.48
2023-04-14T07:34:53.601Z,7.63
2023-04-14T07:37:21.699Z,7.77
2023-04-14T07:39:49.288Z,7.90
2023-04-14T07:42:16.967Z,8.13
2023-04-14T07:44:44.625Z,8.24
2023-04-14T07:47:13.637Z,8.46
2023-04-14T07:49:41.314Z,8.70
2023-04-14T07:52:08.995Z,8.78
2023-04-14T07:54:36.612Z,8.76
2023-04-14T07:57:04.244Z,8.86
2023-04-14T07:59:32.318Z,9.04
2023-04-14T08:02:00.149Z,9.18
2023-04-14T08:04:29.230Z,8.99
2023-04-14T08:06:57.842Z,9.20
2023-04-14T08:09:25.546Z,9.50
2023-04-14T08:11:53.124Z,9.49
2023-04-14T08:14:21.007Z,9.85
2023-04-14T08:16:49.519Z,9.86
2023-04-14T08:19:17.137Z,9.83
2023-04-14T08:21:46.077Z,9.96
2023-04-14T08:24:13.689Z,10.05
2023-04-14T08:26:41.291Z,10.11
2023-04-14T08:29:08.877Z,10.16
2023-04-14T08:31:37.102Z,10.25
2023-04-14T08:34:05.318Z,10.30
2023-04-14T08:36:33.019Z,10.42
2023-04-14T08:39:02.411Z,10.63
2023-04-14T08:41:34.534Z,10.40
2023-04-14T08:44:02.234Z,10.56
2023-04-14T08:46:31.720Z,10.66
2023-04-14T08:49:04.592Z,10.58
2023-04-14T08:51:35.478Z,10.89
2023-04-14T08:54:08.398Z,10.89
2023-04-14T08:56:39.035Z,11.11
2023-04-14T08:59:07.556Z,11.10
2023-04-14T09:01:36.509Z,10.94
2023-04-14T09:04:05.032Z,10.98
2023-04-14T09:06:34.328Z,10.99
2023-04-14T09:09:06.849Z,11.19
2023-04-14T09:11:34.848Z,11.41
2023-04-14T09:14:03.087Z,11.67
2023-04-14T09:16:32.207Z,11.63
2023-04-14T09:19:02.362Z,11.56
2023-04-14T09:21:53.851Z,11.78
2023-04-14T09:24:30.044Z,11.89
2023-04-14T09:26:59.929Z,11.93
2023-04-14T09:29:27.834Z,12.11
2023-04-14T09:31:55.557Z,12.28
2023-04-14T09:34:23.155Z,12.44
2023-04-14T09:37:02.331Z,12.09
2023-04-14T09:39:32.207Z,12.46
2023-04-14T09:42:00.168Z,12.45
2023-04-14T09:44:27.862Z,12.12
2023-04-14T09:47:00.236Z,11.98
2023-04-14T09:49:29.112Z,12.46
2023-04-14T09:52:03.727Z,12.65
2023-04-14T09:54:33.333Z,12.71
2023-04-14T09:57:01.482Z,12.97
2023-04-14T09:59:34.190Z,13.22
2023-04-14T10:02:05.573Z,13.02
2023-04-14T10:04:33.438Z,13.18
2023-04-14T10:07:01.633Z,13.49
2023-04-14T10:09:30.859Z,13.57
2023-04-14T10:12:10.828Z,13.22
2023-04-14T10:14:39.447Z,13.40
2023-04-14T10:17:07.495Z,13.30
2023-04-14T10:19:36.771Z,13.36
2023-04-14T10:22:05.835Z,13.61
2023-04-14T10:24:33.943Z,13.67
2023-04-14T10:27:04.160Z,13.93
2023-04-14T10:29:33.270Z,13.90
2023-04-14T10:32:05.526Z,13.84
2023-04-14T10:34:34.664Z,14.12
2023-04-14T10:37:15.263Z,14.08
2023-04-14T10:39:43.221Z,14.31
2023-04-14T10:42:11.007Z,14.30
2023-04-14T10:44:40.844Z,14.08
2023-04-14T10:47:08.952Z,14.23
2023-04-14T10:49:38.175Z,14.61
2023-04-14T10:52:28.191Z,14.75
2023-04-14T10:55:00.856Z,14.84
2023-04-14T10:57:30.088Z,14.93
2023-04-14T11:00:00.436Z,14.99
2023-04-14T11:02:30.073Z,14.89
2023-04-14T11:05:03.868Z,14.88
2023-04-14T11:07:32.871Z,14.86
2023-04-14T11:10:05.004Z,14.68
2023-04-14T11:12:32.682Z,14.96
2023-04-14T11:15:04.815Z,14.93
2023-04-14T11:17:34.227Z,15.30
2023-04-14T11:20:02.207Z,15.43
2023-04-14T11:22:38.298Z,15.80
2023-04-14T11:25:06.815Z,15.83
2023-04-14T11:27:35.698Z,15.40
2023-04-14T11:30:07.006Z,15.04
2023-04-14T11:32:47.576Z,15.28
2023-04-14T11:35:15.839Z,15.23
2023-04-14T11:37:43.992Z,15.49
2023-04-14T11:40:12.682Z,15.66
2023-04-14T11:42:44.798Z,16.03
2023-04-14T11:45:15.423Z,16.10
2023-04-14T11:47:48.779Z,16.02
2023-04-14T11:50:18.092Z,15.94
2023-04-14T11:52:47.258Z,16.62
2023-04-14T11:55:15.165Z,16.70
2023-04-14T11:57:45.568Z,16.70
2023-04-14T12:00:15.439Z,16.77
2023-04-14T12:02:44.836Z,16.99
2023-04-14T12:05:13.766Z,16.96
2023-04-14T12:07:43.836Z,16.88
2023-04-14T12:10:12.509Z,17.13
2023-04-14T12:12:41.076Z,16.73
2023-04-14T12:15:10.162Z,16.69
2023-04-14T12:17:39.187Z,16.93
2023-04-14T12:20:14.360Z,17.13
2023-04-14T12:22:42.096Z,17.14
2023-04-14T12:25:13.905Z,16.41
2023-04-14T12:27:42.076Z,16.50
2023-04-14T12:30:10.681Z,16.54
2023-04-14T12:32:41.414Z,16.70
2023-04-14T12:35:09.767Z,17.07
2023-04-14T12:37:38.832Z,17.43
2023-04-14T12:40:07.971Z,17.21
2023-04-14T12:42:47.111Z,17.10
2023-04-14T12:45:15.961Z,17.20
2023-04-14T12:47:54.212Z,17.15
2023-04-14T12:50:27.983Z,16.65
2023-04-14T12:52:56.364Z,17.04
2023-04-14T12:55:25.217Z,17.19
2023-04-14T12:57:54.299Z,17.61
2023-04-14T13:00:22.581Z,17.38
2023-04-14T13:02:51.896Z,17.19
2023-04-14T13:05:21.026Z,16.68
2023-04-14T13:07:48.730Z,16.61
2023-04-14T13:10:16.416Z,17.28
2023-04-14T13:12:44.104Z,17.07
2023-04-14T13:15:59.961Z,17.24
2023-04-14T13:18:01.380Z,17.31
2023-04-14T13:20:31.468Z,17.22
2023-04-14T13:22:59.098Z,17.26
2023-04-14T13:25:26.677Z,17.34
2023-04-14T13:27:54.297Z,17.41
2023-04-14T13:30:22.000Z,17.59
2023-04-14T13:32:49.735Z,17.59
2023-04-14T13:35:17.422Z,18.12
2023-04-14T13:37:46.897Z,18.03
2023-04-14T13:40:14.637Z,17.50
2023-04-14T13:42:42.267Z,17.75
2023-04-14T13:45:10.955Z,17.87
2023-04-14T13:47:38.589Z,17.83
2023-04-14T13:50:07.355Z,17.73
2023-04-14T13:52:35.671Z,17.77
2023-04-14T13:55:04.965Z,17.65
2023-04-14T13:57:33.061Z,18.23
2023-04-14T14:00:00.871Z,18.14
2023-04-14T14:02:28.551Z,17.89
2023-04-14T14:04:56.596Z,17.97
2023-04-14T14:07:24.258Z,18.25
2023-04-14T14:09:51.942Z,18.19
2023-04-14T14:12:21.033Z,18.03
2023-04-14T14:14:48.692Z,18.39
2023-04-14T14:17:16.823Z,18.22
2023-04-14T14:19:44.509Z,17.81
2023-04-14T14:22:12.224Z,17.90
2023-04-14T14:24:41.330Z,18.01
2023-04-14T14:27:09.001Z,18.08
2023-04-14T14:29:37.941Z,18.16
2023-04-14T14:32:05.657Z,18.14
2023-04-14T14:34:33.476Z,17.77
2023-04-14T14:37:01.114Z,18.08
2023-04-14T14:39:30.430Z,17.57
2023-04-14T14:41:58.649Z,17.60
2023-04-14T14:44:26.364Z,17.71
2023-04-14T14:46:56.630Z,17.67
2023-04-14T14:49:24.466Z,17.53
2023-04-14T14:51:52.166Z,17.48
2023-04-14T14:54:19.753Z,17.65
2023-04-14T14:56:47.417Z,17.42
2023-04-14T14:59:16.220Z,17.39
2023-04-14T15:01:45.974Z,17.26
2023-04-14T15:04:15.114Z,17.39
2023-04-14T15:06:42.751Z,17.37
2023-04-14T15:09:10.437Z,17.18
2023-04-14T15:11:38.126Z,17.34
2023-04-14T15:14:05.967Z,17.62
2023-04-14T15:16:33.811Z,17.49
2023-04-14T15:19:01.499Z,17.40
2023-04-14T15:21:32.577Z,17.33
2023-04-14T15:24:00.816Z,17.14
2023-04-14T15:26:28.693Z,17.17
2023-04-14T15:28:56.334Z,16.98
2023-04-14T15:31:24.092Z,16.80
2023-04-14T15:33:51.871Z,16.95
2023-04-14T15:36:19.564Z,17.14
2023-04-14T15:38:49.994Z,17.19
2023-04-14T15:41:17.611Z,17.09
2023-04-14T15:43:45.702Z,17.01
2023-04-14T15:46:14.863Z,17.12
2023-04-14T15:48:42.865Z,16.82
2023-04-14T15:51:10.555Z,16.74
2023-04-14T15:53:38.175Z,16.84
2023-04-14T15:56:07.510Z,16.76
2023-04-14T15:58:35.332Z,16.64
2023-04-14T16:01:07.447Z,16.25
2023-04-14T16:03:35.398Z,16.21
2023-04-14T16:06:03.786Z,16.35
2023-04-14T16:08:32.052Z,16.42
2023-04-14T16:10:59.985Z,16.23
2023-04-14T16:13:29.220Z,16.36
2023-04-14T16:15:58.256Z,16.44
2023-04-14T16:18:26.124Z,16.22
2023-04-14T16:20:53.748Z,16.32
2023-04-14T16:23:21.867Z,16.07
2023-04-14T16:25:50.349Z,15.82
2023-04-14T16:28:18.505Z,15.94
2023-04-14T16:30:47.444Z,15.95
2023-04-14T16:33:15.672Z,15.88
2023-04-14T16:35:43.257Z,15.82
2023-04-14T16:38:10.929Z,15.82
2023-04-14T16:40:38.945Z,15.59
2023-04-14T16:43:07.039Z,15.32
2023-04-14T16:45:34.826Z,15.01
2023-04-14T16:48:03.946Z,14.81
2023-04-14T16:50:31.758Z,14.46
2023-04-14T16:52:59.419Z,14.24
2023-04-14T16:55:27.546Z,14.11
2023-04-14T16:57:55.142Z,13.94
2023-04-14T17:00:22.800Z,13.80
2023-04-14T17:02:51.198Z,13.78
2023-04-14T17:05:21.571Z,13.80
2023-04-14T17:07:49.897Z,13.75
2023-04-14T17:10:17.588Z,13.60
2023-04-14T17:12:46.579Z,13.50
2023-04-14T17:15:14.190Z,13.46
2023-04-14T17:17:42.806Z,13.36
2023-04-14T17:20:12.188Z,13.22
2023-04-14T17:22:41.199Z,13.05
2023-04-14T17:25:10.658Z,13.01
2023-04-14T17:27:39.060Z,12.85
2023-04-14T17:30:10.156Z,12.70
2023-04-14T17:32:38.997Z,12.60
2023-04-14T17:35:07.682Z,12.51
2023-04-14T17:37:36.038Z,12.33
2023-04-14T17:40:05.891Z,12.14
2023-04-14T17:42:34.237Z,12.03
2023-04-14T17:45:02.217Z,11.39
2023-04-14T17:47:31.343Z,11.68
2023-04-14T17:49:59.140Z,11.48
2023-04-14T17:52:27.606Z,11.36
2023-04-14T17:54:55.937Z,11.18
2023-04-14T17:57:25.476Z,11.06
2023-04-14T17:59:53.828Z,10.86
2023-04-14T18:02:21.461Z,10.68
2023-04-14T18:04:49.170Z,10.56
2023-04-14T18:07:17.409Z,10.39
2023-04-14T18:09:45.217Z,10.28
2023-04-14T18:12:13.834Z,10.12
2023-04-14T18:14:44.571Z,9.92
2023-04-14T18:17:12.863Z,9.71
2023-04-14T18:19:40.558Z,9.55
2023-04-14T18:22:08.249Z,9.40
2023-04-14T18:29:37.810Z,8.94
2023-04-14T18:32:06.738Z,8.87
2023-04-14T18:34:34.734Z,8.75
2023-04-14T18:37:03.895Z,8.65
2023-04-14T18:39:33.487Z,8.58
2023-04-14T18:42:01.155Z,8.47
2023-04-14T18:44:29.135Z,8.37
2023-04-14T18:46:56.908Z,8.27
2023-04-14T18:49:25.957Z,8.17
2023-04-14T18:51:54.499Z,8.06
2023-04-14T18:54:22.566Z,8.03
2023-04-14T18:56:50.655Z,7.99
2023-04-14T18:59:18.373Z,7.93
2023-04-14T19:01:46.180Z,7.83
2023-04-14T19:04:14.210Z,7.75
2023-04-14T19:06:43.920Z,7.69
2023-04-14T19:09:11.947Z,7.68
2023-04-14T19:11:39.950Z,7.52
2023-04-14T19:14:07.649Z,7.45
2023-04-14T19:16:35.283Z,7.91
2023-04-14T19:19:03.089Z,8.04
2023-04-14T19:21:31.807Z,8.11
2023-04-14T19:24:00.812Z,8.19
2023-04-14T19:26:29.775Z,8.12
2023-04-14T19:28:58.709Z,8.03
2023-04-14T19:31:28.258Z,8.00
2023-04-14T19:33:58.513Z,7.91
2023-04-14T19:36:26.266Z,7.97
2023-04-14T19:38:53.989Z,7.94
2023-04-14T19:41:23.190Z,7.89
2023-04-14T19:43:51.924Z,7.88
2023-04-14T19:46:19.553Z,7.82
2023-04-14T19:48:47.141Z,7.76
2023-04-14T19:51:14.770Z,7.63
2023-04-14T19:53:43.918Z,7.65
2023-04-14T19:56:12.659Z,7.57
2023-04-14T19:58:41.606Z,7.57
2023-04-14T20:01:09.485Z,7.47
2023-04-14T20:03:37.188Z,7.44
2023-04-14T20:06:05.244Z,7.44
2023-04-14T20:08:33.123Z,7.45
2023-04-14T20:11:01.533Z,7.45
2023-04-14T20:13:31.965Z,7.45
2023-04-14T20:16:01.577Z,7.31
2023-04-14T20:18:29.310Z,7.39
2023-04-14T20:20:57.213Z,7.35
2023-04-14T20:23:24.960Z,7.30
2023-04-14T20:25:53.806Z,7.39
2023-04-14T20:28:25.591Z,7.50
2023-04-14T20:30:54.783Z,7.56
2023-04-14T20:33:24.446Z,7.60
2023-04-14T20:35:53.822Z,7.67
2023-04-14T20:38:22.354Z,7.84
2023-04-14T20:40:50.030Z,7.98
2023-04-14T20:43:17.617Z,8.05
2023-04-14T20:45:45.536Z,7.97
2023-04-14T20:48:13.570Z,7.92
2023-04-14T20:50:44.225Z,8.23
2023-04-14T20:53:11.881Z,8.34
2023-04-14T20:55:41.030Z,8.32
2023-04-14T20:58:08.745Z,8.22
2023-04-14T21:00:36.376Z,8.16
2023-04-14T21:03:04.457Z,8.12
2023-04-14T21:05:32.847Z,7.98
2023-04-14T21:08:02.147Z,7.69
2023-04-14T21:10:29.852Z,7.52
2023-04-14T21:15:43.512Z,7.37
2023-04-14T21:15:54.753Z,7.25
2023-04-14T21:18:23.776Z,7.11
2023-04-14T21:20:51.763Z,7.21
2023-04-14T21:23:21.269Z,7.48
2023-04-14T21:25:49.046Z,7.70
2023-04-14T21:28:16.809Z,7.78
2023-04-14T21:30:44.529Z,7.59
2023-04-14T21:33:12.278Z,7.50
2023-04-14T21:35:39.908Z,7.44
2023-04-14T21:38:07.984Z,7.53
2023-04-14T21:40:36.900Z,7.52
2023-04-14T21:43:04.815Z,7.56
2023-04-14T21:45:32.760Z,7.51
2023-04-14T21:48:00.550Z,7.48
2023-04-14T21:50:28.696Z,7.50
2023-04-14T21:52:56.529Z,7.51
2023-04-14T21:55:24.168Z,7.45
2023-04-14T21:57:55.154Z,7.39
2023-04-14T22:00:24.061Z,7.32
2023-04-14T22:02:51.795Z,7.27
2023-04-14T22:05:19.837Z,7.18
2023-04-14T22:07:47.474Z,7.15
2023-04-14T22:10:15.558Z,7.07
2023-04-14T22:12:44.620Z,7.03
2023-04-14T22:15:14.356Z,7.06
2023-04-14T22:17:42.482Z,7.10
2023-04-14T22:20:11.902Z,7.05
2023-04-14T22:22:39.625Z,7.04
2023-04-14T22:25:08.358Z,6.91
2023-04-14T22:27:36.521Z,6.93
2023-04-14T22:30:05.223Z,6.78
2023-04-14T22:32:34.385Z,6.94
2023-04-14T22:35:02.034Z,6.90
2023-04-14T22:37:29.650Z,6.83
2023-04-14T22:39:57.723Z,6.63
2023-04-14T22:42:25.973Z,6.57
2023-04-14T22:44:54.297Z,6.48
2023-04-14T22:47:22.332Z,6.37
2023-04-14T22:49:51.752Z,6.36
2023-04-14T22:52:19.817Z,6.37
2023-04-14T22:54:48.571Z,6.37
2023-04-14T22:57:16.431Z,6.25
2023-04-14T22:59:44.257Z,5.91
2023-04-14T23:02:12.089Z,5.98
2023-04-14T23:04:39.987Z,5.89
2023-04-14T23:07:09.014Z,5.85
2023-04-14T23:09:36.606Z,5.75
2023-04-14T23:12:04.486Z,5.72
2023-04-14T23:14:33.092Z,5.54
2023-04-14T23:17:00.952Z,5.57
2023-04-14T23:19:28.678Z,5.52
2023-04-14T23:21:56.820Z,5.48
2023-04-14T23:24:25.966Z,5.43
2023-04-14T23:26:53.629Z,5.37
2023-04-14T23:29:21.388Z,5.34
2023-04-14T23:31:49.113Z,5.27
2023-04-14T23:34:16.796Z,5.29
2023-04-14T23:36:46.681Z,5.23
2023-04-14T23:39:14.269Z,5.23
2023-04-14T23:41:43.195Z,5.22
2023-04-14T23:44:10.736Z,5.15
2023-04-14T23:46:39.186Z,5.07
2023-04-14T23:49:24.623Z,4.95
2023-04-14T23:51:54.677Z,4.95
2023-04-14T23:54:22.246Z,5.01
2023-04-14T23:56:51.523Z,5.02
2023-04-14T23:59:19.110Z,4.99
